Time;durP1;ratioP1;P1;durP2;ratioP2;P2;SDS_P1;SDS_P2;PMS_P1;PMS_P2;Temp;Humidity;BMP_temperature;BMP_pressure;BME280_temperature;BME280_humidity;BME280_pressure;Samples;Min_cycle;Max_cycle;Signal;HPM_P1;HPM_P2
2022/10/14 00:01:09;;;;;;;25.42;8.75;;;10.60;99.90;;;;;;5027298;28;20029;-85
2022/10/14 00:03:36;;;;;;;27.77;8.68;;;10.50;99.90;;;;;;5009033;28;20022;-80
2022/10/14 00:06:08;;;;;;;17.77;7.88;;;10.50;99.90;;;;;;5029223;28;20129;-80
2022/10/14 00:08:34;;;;;;;16.52;7.55;;;10.50;99.90;;;;;;5027684;28;20035;-84
2022/10/14 00:11:05;;;;;;;17.20;7.63;;;10.50;99.90;;;;;;5012077;28;20039;-82
2022/10/14 00:13:30;;;;;;;15.85;6.88;;;10.50;99.90;;;;;;5026414;28;20041;-80
2022/10/14 00:15:56;;;;;;;16.20;7.68;;;10.50;99.90;;;;;;4994281;28;20065;-85
2022/10/14 00:18:22;;;;;;;17.42;7.50;;;10.50;99.90;;;;;;5011084;28;20030;-80
2022/10/14 00:20:56;;;;;;;44.67;7.07;;;10.50;99.90;;;;;;5011024;28;20108;-83
2022/10/14 00:23:23;;;;;;;19.38;6.55;;;10.50;99.90;;;;;;5043380;28;20045;-80
2022/10/14 00:25:48;;;;;;;18.98;6.53;;;10.50;99.90;;;;;;5028104;28;20112;-81
2022/10/14 00:28:16;;;;;;;14.25;6.15;;;10.40;99.90;;;;;;5011036;28;20025;-86
2022/10/14 00:30:52;;;;;;;21.00;6.55;;;10.40;99.90;;;;;;5010609;28;20488;-80
2022/10/14 00:33:18;;;;;;;14.07;6.35;;;10.40;99.90;;;;;;5024850;28;20022;-80
2022/10/14 00:36:04;;;;;;;20.40;6.75;;;10.40;99.90;;;;;;4993020;28;20167;-84
2022/10/14 00:38:32;;;;;;;18.65;7.40;;;10.40;99.90;;;;;;5028217;28;20079;-80
2022/10/14 00:40:58;;;;;;;15.63;7.00;;;10.40;99.90;;;;;;5043799;28;20029;-81
2022/10/14 00:43:26;;;;;;;19.90;6.53;;;10.40;99.90;;;;;;5011269;28;20431;-81
2022/10/14 00:45:52;;;;;;;14.70;6.75;;;10.30;99.90;;;;;;4991392;28;20041;-85
2022/10/14 00:48:22;;;;;;;15.75;7.00;;;10.30;99.90;;;;;;5027638;28;20074;-84
2022/10/14 00:50:53;;;;;;;14.85;6.00;;;10.30;99.90;;;;;;4994950;28;20026;-82
2022/10/14 00:53:20;;;;;;;15.77;6.45;;;10.30;99.90;;;;;;5019205;28;20500;-79
2022/10/14 00:55:47;;;;;;;21.15;6.60;;;10.40;99.90;;;;;;4994634;28;20068;-79
2022/10/14 00:58:14;;;;;;;15.88;6.65;;;10.40;99.90;;;;;;5027375;28;20493;-80
2022/10/14 01:00:40;;;;;;;12.93;5.32;;;10.40;99.90;;;;;;5011154;28;20041;-85
2022/10/14 01:03:08;;;;;;;19.10;6.60;;;10.40;99.90;;;;;;5028401;28;20071;-86
2022/10/14 01:05:44;;;;;;;13.85;5.63;;;10.40;99.90;;;;;;5008799;28;20440;-86
2022/10/14 01:08:23;;;;;;;13.45;5.80;;;10.30;99.90;;;;;;5026585;28;20032;-85
2022/10/14 01:11:03;;;;;;;12.05;5.43;;;10.30;99.90;;;;;;5029881;28;20036;-85
2022/10/14 01:13:38;;;;;;;13.45;5.93;;;10.30;99.90;;;;;;5022843;28;20046;-86
2022/10/14 01:16:08;;;;;;;13.65;6.30;;;10.30;99.90;;;;;;4986968;28;20026;-84
2022/10/14 01:18:43;;;;;;;;;;;10.30;99.90;;;;;;5008442;28;20034;-86
2022/10/14 01:21:19;;;;;;;10.05;5.10;;;10.30;99.90;;;;;;5007082;28;19909;-79
2022/10/14 01:24:13;;;;;;;13.80;7.32;;;10.30;99.90;;;;;;5007677;28;20026;-83
2022/10/14 01:26:55;;;;;;;12.43;7.38;;;10.30;99.90;;;;;;5007680;28;20053;-83
2022/10/14 01:29:45;;;;;;;13.90;7.07;;;10.30;99.90;;;;;;5007992;28;20418;-81
2022/10/14 01:32:30;;;;;;;18.42;6.97;;;10.30;99.90;;;;;;5023235;28;20037;-83
2022/10/14 01:35:24;;;;;;;11.98;7.32;;;10.30;99.90;;;;;;5007599;28;20225;-80
2022/10/14 01:38:13;;;;;;;20.33;7.70;;;10.30;99.90;;;;;;5013135;28;20763;-80
2022/10/14 01:40:58;;;;;;;13.63;7.18;;;10.30;99.90;;;;;;4996721;28;20121;-80
2022/10/14 01:43:27;;;;;;;15.52;8.02;;;10.30;99.90;;;;;;5007338;28;20034;-85
2022/10/14 01:45:54;;;;;;;14.98;7.97;;;10.30;99.90;;;;;;5011250;28;20049;-82
2022/10/14 01:48:25;;;;;;;15.15;7.60;;;10.30;99.90;;;;;;5009654;28;20033;-86
2022/10/14 01:50:53;;;;;;;14.05;7.95;;;10.40;99.90;;;;;;5009190;28;20022;-85
2022/10/14 01:53:24;;;;;;;13.70;8.38;;;10.40;99.90;;;;;;5009845;28;20034;-80
2022/10/14 01:55:51;;;;;;;;;;;10.40;99.90;;;;;;4991012;28;20119;-80
2022/10/14 01:58:19;;;;;;;14.95;7.07;;;10.40;99.90;;;;;;5022435;28;20372;-85
2022/10/14 02:00:46;;;;;;;12.02;7.45;;;10.40;99.90;;;;;;5011194;28;20033;-80
2022/10/14 02:03:12;;;;;;;13.05;7.90;;;10.40;99.90;;;;;;5011156;28;20522;-84
2022/10/14 02:05:45;;;;;;;13.70;8.30;;;10.40;99.90;;;;;;5011917;28;20121;-85
2022/10/14 02:08:33;;;;;;;13.40;7.95;;;10.40;99.90;;;;;;5011059;28;20054;-82
2022/10/14 02:11:15;;;;;;;13.38;6.95;;;10.40;99.90;;;;;;4996059;28;20025;-80
2022/10/14 02:14:07;;;;;;;11.65;7.03;;;10.40;99.90;;;;;;5011164;28;20509;-85
2022/10/14 02:16:40;;;;;;;12.80;7.65;;;10.40;99.90;;;;;;5011266;28;20680;-85
2022/10/14 02:19:39;;;;;;;11.73;7.15;;;10.40;99.90;;;;;;4989430;28;20022;-80
2022/10/14 02:22:09;;;;;;;12.88;7.65;;;10.40;99.90;;;;;;5010978;28;20109;-84
2022/10/14 02:24:39;;;;;;;13.38;7.80;;;10.40;99.90;;;;;;5010759;28;20026;-85
2022/10/14 02:27:13;;;;;;;12.43;7.07;;;10.30;99.90;;;;;;5010305;28;20112;-84
2022/10/14 02:29:42;;;;;;;12.85;7.68;;;10.40;99.90;;;;;;5009229;28;20024;-81
2022/10/14 02:32:10;;;;;;;12.35;7.40;;;10.40;99.90;;;;;;5010220;28;20049;-84
2022/10/14 02:34:36;;;;;;;12.95;6.88;;;10.40;99.90;;;;;;5010061;28;20026;-80
2022/10/14 02:37:07;;;;;;;13.30;8.18;;;10.40;99.90;;;;;;5009217;28;20117;-82
2022/10/14 02:39:42;;;;;;;15.98;8.98;;;10.40;99.90;;;;;;4993981;28;20121;-81
2022/10/14 02:42:07;;;;;;;13.05;7.97;;;10.40;99.90;;;;;;5010118;28;20026;-81
2022/10/14 02:44:33;;;;;;;16.13;8.38;;;10.40;99.90;;;;;;4993057;28;20360;-80
2022/10/14 02:46:59;;;;;;;13.82;7.53;;;10.40;99.90;;;;;;5009996;28;20038;-79
2022/10/14 02:49:27;;;;;;;14.15;7.93;;;10.40;99.90;;;;;;5009053;28;20463;-85
2022/10/14 02:51:53;;;;;;;17.70;8.95;;;10.40;99.90;;;;;;5024335;28;20441;-79
2022/10/14 02:54:19;;;;;;;16.52;8.52;;;10.40;99.90;;;;;;5008950;28;20018;-81
2022/10/14 02:56:45;;;;;;;15.70;8.88;;;10.40;99.90;;;;;;5009560;28;20363;-86
2022/10/14 02:59:10;;;;;;;16.75;8.73;;;10.40;99.90;;;;;;5009499;28;20150;-80
2022/10/14 03:01:37;;;;;;;15.60;8.10;;;10.40;99.90;;;;;;5008920;28;20030;-83
2022/10/14 03:04:03;;;;;;;19.88;8.32;;;10.40;99.90;;;;;;4993542;28;20541;-81
2022/10/14 03:06:29;;;;;;;17.70;9.25;;;10.40;99.90;;;;;;4993035;28;20189;-80
2022/10/14 03:08:57;;;;;;;16.13;8.25;;;10.40;99.90;;;;;;5026248;28;20021;-84
2022/10/14 03:11:23;;;;;;;17.70;9.25;;;10.40;99.90;;;;;;5009430;28;20034;-82
2022/10/14 03:13:50;;;;;;;18.52;10.23;;;10.50;99.90;;;;;;4997356;28;20021;-81
2022/10/14 03:16:18;;;;;;;18.10;9.95;;;10.40;99.90;;;;;;5028046;28;20036;-84
2022/10/14 03:18:44;;;;;;;17.30;9.00;;;10.50;99.90;;;;;;5013328;28;20079;-80
2022/10/14 03:21:19;;;;;;;16.08;8.65;;;10.40;99.90;;;;;;5030648;28;20060;-86
2022/10/14 03:23:45;;;;;;;18.58;9.15;;;10.50;99.90;;;;;;5011539;28;20061;-79
2022/10/14 03:26:11;;;;;;;17.88;9.15;;;10.50;99.90;;;;;;5011946;28;20056;-85
2022/10/14 03:28:40;;;;;;;15.77;7.88;;;10.40;99.90;;;;;;5028583;28;20153;-85
2022/10/14 03:31:13;;;;;;;19.63;8.85;;;10.50;99.90;;;;;;5012298;28;20485;-85
2022/10/14 03:34:10;;;;;;;18.30;9.10;;;10.50;99.90;;;;;;5010092;28;20044;-85
2022/10/14 03:36:38;;;;;;;18.10;9.20;;;10.50;99.90;;;;;;4997427;28;20041;-81
2022/10/14 03:39:04;;;;;;;18.42;9.48;;;10.50;99.90;;;;;;5012286;28;20744;-80
2022/10/14 03:41:39;;;;;;;20.38;9.68;;;10.50;99.90;;;;;;5010445;28;20520;-82
2022/10/14 03:44:06;;;;;;;19.92;9.82;;;10.50;99.90;;;;;;5029108;28;20105;-85
2022/10/14 03:46:34;;;;;;;17.30;8.82;;;10.50;99.90;;;;;;4995962;28;20108;-82
2022/10/14 03:49:00;;;;;;;20.02;10.13;;;10.50;99.90;;;;;;5012782;28;20017;-82
2022/10/14 03:51:26;;;;;;;19.17;10.80;;;10.50;99.90;;;;;;5012661;28;20044;-82
2022/10/14 03:54:03;;;;;;;20.33;10.38;;;10.60;99.90;;;;;;5044271;28;20409;-84
2022/10/14 03:56:31;;;;;;;19.33;9.93;;;10.60;99.90;;;;;;5009688;28;20034;-80
2022/10/14 03:58:57;;;;;;;18.23;10.27;;;10.60;99.90;;;;;;5009873;28;20619;-86
2022/10/14 04:01:23;;;;;;;21.05;12.13;;;10.70;99.90;;;;;;5011811;28;20038;-84
2022/10/14 04:04:21;;;;;;;18.60;11.30;;;10.60;99.90;;;;;;5030180;28;20384;-82
2022/10/14 04:06:47;;;;;;;19.20;11.23;;;10.70;99.90;;;;;;5012040;28;20037;-80
2022/10/14 04:09:15;;;;;;;17.85;10.70;;;10.70;99.90;;;;;;5011644;28;20116;-82
2022/10/14 04:11:42;;;;;;;19.83;11.57;;;10.70;99.90;;;;;;5011124;28;20107;-84
2022/10/14 04:14:14;;;;;;;22.90;12.23;;;10.70;99.90;;;;;;5025505;28;20029;-82
2022/10/14 04:16:45;;;;;;;18.90;11.20;;;10.80;99.90;;;;;;5027432;28;20025;-79
2022/10/14 04:19:11;;;;;;;18.10;10.20;;;10.80;99.90;;;;;;5009583;28;20025;-85
2022/10/14 04:21:39;;;;;;;17.35;11.10;;;10.80;99.90;;;;;;5027337;28;20461;-83
2022/10/14 04:24:06;;;;;;;20.13;11.80;;;11.00;99.90;;;;;;5011004;28;20481;-86
2022/10/14 04:26:40;;;;;;;18.92;11.43;;;11.00;99.90;;;;;;4996972;28;20029;-82
2022/10/14 04:29:12;;;;;;;20.45;12.05;;;10.90;99.90;;;;;;5026580;28;20117;-85
2022/10/14 04:31:50;;;;;;;17.98;11.40;;;10.90;99.90;;;;;;5011911;28;20030;-84
2022/10/14 04:34:17;;;;;;;18.73;10.48;;;11.10;99.90;;;;;;5010142;28;20052;-85
2022/10/14 04:36:43;;;;;;;20.08;11.07;;;11.10;99.90;;;;;;5010130;28;20080;-82
2022/10/14 04:39:24;;;;;;;17.55;10.43;;;11.10;99.90;;;;;;5028937;28;20035;-85
2022/10/14 04:41:49;;;;;;;17.38;10.63;;;11.20;99.90;;;;;;5011097;28;20113;-82
2022/10/14 04:44:18;;;;;;;20.33;11.90;;;11.10;99.90;;;;;;5011724;28;20018;-85
2022/10/14 04:46:48;;;;;;;17.92;10.95;;;11.10;99.90;;;;;;5043120;28;20036;-82
2022/10/14 04:49:17;;;;;;;18.35;10.52;;;11.30;99.90;;;;;;5009723;28;20074;-82
2022/10/14 04:51:51;;;;;;;15.75;10.68;;;11.20;99.90;;;;;;4995346;28;20052;-82
2022/10/14 04:54:24;;;;;;;14.63;10.30;;;11.30;99.90;;;;;;5011324;28;20125;-80
2022/10/14 04:56:52;;;;;;;15.50;10.32;;;11.40;99.90;;;;;;5010015;28;20598;-84
2022/10/14 04:59:18;;;;;;;14.40;9.60;;;11.40;99.90;;;;;;5010411;28;20033;-85
2022/10/14 05:01:52;;;;;;;15.35;10.73;;;11.40;99.90;;;;;;5044156;28;20025;-82
2022/10/14 05:04:19;;;;;;;17.67;10.77;;;11.40;99.90;;;;;;5027296;28;20692;-81
2022/10/14 05:06:47;;;;;;;16.83;10.02;;;11.40;99.90;;;;;;5009346;28;20034;-81
2022/10/14 05:09:14;;;;;;;16.20;10.27;;;11.40;99.90;;;;;;5027738;28;20067;-80
2022/10/14 05:11:41;;;;;;;16.05;10.20;;;11.40;99.90;;;;;;5010577;28;20065;-83
2022/10/14 05:14:07;;;;;;;14.18;9.32;;;11.40;99.90;;;;;;5028521;28;20061;-83
2022/10/14 05:16:35;;;;;;;13.85;9.45;;;11.50;99.90;;;;;;5008468;28;20040;-84
2022/10/14 05:19:01;;;;;;;14.07;9.55;;;11.50;99.90;;;;;;4996267;28;20030;-80
2022/10/14 05:21:27;;;;;;;13.95;9.35;;;11.50;99.90;;;;;;4998341;28;20418;-80
2022/10/14 05:24:09;;;;;;;18.25;10.13;;;11.50;99.90;;;;;;5028518;28;20048;-79
2022/10/14 05:26:37;;;;;;;13.85;8.60;;;11.50;99.90;;;;;;5029958;28;20566;-84
2022/10/14 05:29:07;;;;;;;14.43;9.35;;;11.50;99.90;;;;;;4998496;28;20057;-81
2022/10/14 05:31:32;;;;;;;14.80;9.80;;;11.50;99.90;;;;;;5015169;28;20064;-80
2022/10/14 05:34:14;;;;;;;13.07;8.52;;;11.50;99.90;;;;;;5000511;28;20368;-81
2022/10/14 05:36:39;;;;;;;13.48;9.23;;;11.60;99.90;;;;;;4998336;28;20481;-81
2022/10/14 05:39:10;;;;;;;15.90;10.27;;;11.50;99.90;;;;;;5015221;28;20029;-84
2022/10/14 05:41:37;;;;;;;16.65;9.80;;;11.60;99.90;;;;;;5011254;28;20059;-85
2022/10/14 05:44:04;;;;;;;14.63;9.10;;;11.60;99.90;;;;;;4997918;28;20021;-79
2022/10/14 05:46:30;;;;;;;16.17;10.50;;;11.60;99.90;;;;;;4997859;28;20033;-86
2022/10/14 05:49:01;;;;;;;16.40;10.13;;;11.70;99.90;;;;;;5008754;28;20044;-83
2022/10/14 05:51:27;;;;;;;15.77;10.60;;;11.60;99.90;;;;;;5012509;28;20117;-80
2022/10/14 05:54:00;;;;;;;14.68;10.02;;;11.70;99.90;;;;;;5029509;28;20522;-81
2022/10/14 05:56:25;;;;;;;13.57;9.88;;;11.80;99.90;;;;;;5012299;28;20037;-81
2022/10/14 05:58:52;;;;;;;12.90;9.23;;;11.80;99.90;;;;;;5013428;28;20037;-85
2022/10/14 06:01:17;;;;;;;13.02;9.00;;;11.80;99.90;;;;;;5012988;28;20068;-82
2022/10/14 06:03:43;;;;;;;11.68;8.52;;;11.80;99.90;;;;;;5029499;28;20092;-81
2022/10/14 06:06:13;;;;;;;15.50;10.35;;;11.80;99.90;;;;;;5012187;28;20041;-83
2022/10/14 06:08:39;;;;;;;;;;;11.90;99.90;;;;;;5013066;28;20424;-81
2022/10/14 06:11:06;;;;;;;11.27;6.72;;;11.90;99.90;;;;;;5011123;28;19909;-83
2022/10/14 06:13:32;;;;;;;11.60;7.95;;;11.90;99.90;;;;;;5009797;28;20443;-84
2022/10/14 06:16:05;;;;;;;12.45;8.27;;;12.10;99.90;;;;;;5011432;28;20032;-81
2022/10/14 06:18:31;;;;;;;11.70;9.15;;;12.00;99.90;;;;;;5027746;28;20469;-84
2022/10/14 06:20:57;;;;;;;12.60;8.30;;;12.00;99.90;;;;;;4996304;28;20035;-81
2022/10/14 06:23:23;;;;;;;13.65;10.05;;;12.10;99.90;;;;;;5027504;28;20037;-83
2022/10/14 06:25:48;;;;;;;11.23;7.80;;;12.20;99.90;;;;;;5012621;28;20025;-83
2022/10/14 06:28:14;;;;;;;14.00;9.57;;;12.20;99.90;;;;;;4995347;28;20501;-83
2022/10/14 06:30:40;;;;;;;14.13;9.20;;;12.20;99.90;;;;;;5028936;28;20030;-83
2022/10/14 06:33:05;;;;;;;12.70;8.73;;;12.20;99.90;;;;;;5045147;28;20033;-84
2022/10/14 06:35:31;;;;;;;14.30;10.07;;;12.20;99.90;;;;;;5011740;28;20063;-80
2022/10/14 06:37:58;;;;;;;12.13;9.20;;;12.30;99.90;;;;;;4995692;28;20022;-83
2022/10/14 06:40:24;;;;;;;11.88;8.63;;;12.30;99.90;;;;;;5012007;28;20204;-82
2022/10/14 06:42:52;;;;;;;12.90;9.20;;;12.30;99.90;;;;;;5030093;28;20401;-80
2022/10/14 06:45:18;;;;;;;10.50;8.15;;;12.30;99.90;;;;;;5011103;28;20389;-82
2022/10/14 06:47:43;;;;;;;11.45;7.53;;;12.30;99.90;;;;;;5029189;28;20033;-82
2022/10/14 06:50:09;;;;;;;12.05;8.30;;;12.40;99.90;;;;;;4995403;28;20052;-84
2022/10/14 06:52:34;;;;;;;9.40;6.55;;;12.40;99.90;;;;;;4993825;28;20033;-81
2022/10/14 06:55:00;;;;;;;10.02;7.18;;;12.40;99.90;;;;;;5044930;28;20026;-81
2022/10/14 06:57:26;;;;;;;9.60;6.68;;;12.50;99.90;;;;;;4993286;28;20060;-81
2022/10/14 06:59:51;;;;;;;9.98;6.82;;;12.50;99.90;;;;;;4995262;28;20357;-83
2022/10/14 07:02:17;;;;;;;8.02;6.35;;;12.40;99.90;;;;;;5028081;28;20025;-83
2022/10/14 07:04:42;;;;;;;10.10;7.57;;;12.50;99.90;;;;;;5011254;28;20099;-79
2022/10/14 07:07:08;;;;;;;8.73;6.70;;;12.60;99.90;;;;;;5028567;28;20424;-80
2022/10/14 07:09:34;;;;;;;8.68;5.82;;;12.50;99.90;;;;;;5044112;28;20017;-82
2022/10/14 07:12:00;;;;;;;9.13;6.25;;;12.50;99.90;;;;;;5029130;28;20060;-80
2022/10/14 07:14:26;;;;;;;9.35;6.70;;;12.60;99.90;;;;;;5010261;28;20045;-80
2022/10/14 07:16:52;;;;;;;9.07;6.72;;;12.50;99.90;;;;;;5027192;28;20025;-80
2022/10/14 07:19:18;;;;;;;10.07;6.57;;;12.60;99.90;;;;;;5010800;28;20030;-82
2022/10/14 07:21:45;;;;;;;6.55;5.28;;;12.60;99.90;;;;;;5026516;28;20064;-82
2022/10/14 07:24:11;;;;;;;5.88;4.57;;;12.60;99.90;;;;;;5028076;28;20036;-82
2022/10/14 07:26:37;;;;;;;4.65;3.67;;;12.60;99.90;;;;;;5010115;28;20065;-82
2022/10/14 07:29:04;;;;;;;5.20;4.05;;;12.70;99.90;;;;;;5010822;28;20485;-82
2022/10/14 07:31:29;;;;;;;5.13;3.75;;;12.70;99.90;;;;;;4997490;28;20356;-82
2022/10/14 07:33:55;;;;;;;4.88;3.55;;;12.70;99.90;;;;;;5010615;28;20124;-82
2022/10/14 07:36:21;;;;;;;5.40;3.35;;;12.80;99.90;;;;;;5019242;28;20033;-80
2022/10/14 07:38:47;;;;;;;3.92;3.03;;;12.80;99.90;;;;;;5023969;28;20045;-81
2022/10/14 07:41:16;;;;;;;4.82;3.60;;;12.80;99.90;;;;;;5007444;28;20041;-80
2022/10/14 07:43:45;;;;;;;4.85;3.30;;;12.90;99.90;;;;;;4987629;28;20041;-82
2022/10/14 07:46:12;;;;;;;3.28;2.17;;;12.90;99.90;;;;;;4998221;28;20045;-82
2022/10/14 07:48:39;;;;;;;3.10;2.03;;;12.90;99.90;;;;;;5024453;28;20025;-81
2022/10/14 07:51:08;;;;;;;2.95;1.88;;;13.00;99.90;;;;;;4986212;28;20469;-81
2022/10/14 07:53:35;;;;;;;2.60;1.70;;;13.00;99.90;;;;;;5024765;28;20033;-82
2022/10/14 07:56:01;;;;;;;2.88;1.90;;;13.00;99.90;;;;;;4998995;28;20040;-82
2022/10/14 07:58:29;;;;;;;3.38;2.17;;;13.10;99.90;;;;;;5009536;28;20432;-83
2022/10/14 08:00:56;;;;;;;2.85;2.33;;;13.10;99.90;;;;;;5010237;28;20384;-82
2022/10/14 08:03:23;;;;;;;2.45;1.80;;;13.10;99.90;;;;;;5005723;28;20455;-82
2022/10/14 08:05:49;;;;;;;2.70;1.88;;;13.10;99.90;;;;;;5004888;28;20076;-81
2022/10/14 08:08:16;;;;;;;2.40;1.45;;;13.10;99.90;;;;;;5005426;28;20049;-82
2022/10/14 08:10:42;;;;;;;2.63;1.90;;;13.20;99.90;;;;;;5006750;28;20091;-79
2022/10/14 08:13:07;;;;;;;2.65;2.05;;;13.20;99.90;;;;;;5005744;28;20049;-79
2022/10/14 08:15:37;;;;;;;3.03;2.50;;;13.20;99.90;;;;;;5006150;28;20124;-79
2022/10/14 08:18:07;;;;;;;3.88;2.63;;;13.30;99.90;;;;;;5022410;28;20025;-81
2022/10/14 08:20:33;;;;;;;3.50;2.40;;;13.30;99.90;;;;;;5005747;28;20044;-81
2022/10/14 08:23:00;;;;;;;2.38;2.00;;;13.30;99.90;;;;;;5009865;28;20021;-81
2022/10/14 08:25:26;;;;;;;4.60;3.15;;;13.30;99.90;;;;;;5022210;28;20614;-81
2022/10/14 08:27:53;;;;;;;3.55;2.60;;;13.30;99.90;;;;;;5006637;28;20417;-80
2022/10/14 08:30:19;;;;;;;3.60;2.88;;;13.30;99.90;;;;;;4989193;28;20021;-80
2022/10/14 08:32:45;;;;;;;2.97;2.55;;;13.40;99.90;;;;;;5023669;28;20034;-79
2022/10/14 08:35:11;;;;;;;2.90;2.42;;;13.40;99.90;;;;;;5003689;28;20030;-80
2022/10/14 08:37:37;;;;;;;3.67;2.42;;;13.40;99.90;;;;;;5022308;28;20021;-82
2022/10/14 08:40:05;;;;;;;3.47;2.95;;;13.50;99.90;;;;;;5006403;28;20034;-80
2022/10/14 08:42:35;;;;;;;3.47;3.17;;;13.40;99.90;;;;;;5005281;28;20033;-80
2022/10/14 08:45:15;;;;;;;4.53;4.05;;;13.50;99.90;;;;;;4989688;28;20030;-79
2022/10/14 08:47:45;;;;;;;4.65;3.55;;;13.50;99.90;;;;;;5004486;28;20437;-80
2022/10/14 08:50:25;;;;;;;3.50;3.07;;;13.50;99.90;;;;;;5021096;28;20052;-79
2022/10/14 08:52:57;;;;;;;4.35;3.80;;;13.60;99.90;;;;;;5022014;28;20041;-82
2022/10/14 08:55:34;;;;;;;3.22;2.90;;;13.60;99.90;;;;;;5004047;28;20444;-81
2022/10/14 08:58:23;;;;;;;3.63;3.08;;;13.60;99.90;;;;;;5035143;28;20033;-80
2022/10/14 09:00:50;;;;;;;3.70;2.22;;;13.60;99.90;;;;;;5022590;28;20116;-82
2022/10/14 09:03:32;;;;;;;2.67;2.25;;;13.70;99.90;;;;;;5021516;28;20029;-80
2022/10/14 09:06:16;;;;;;;2.78;2.20;;;13.70;99.90;;;;;;5006299;28;20034;-83
2022/10/14 09:08:45;;;;;;;3.17;2.92;;;13.70;99.90;;;;;;5021769;28;20105;-80
2022/10/14 09:11:22;;;;;;;3.10;2.08;;;13.70;99.90;;;;;;5038336;28;20029;-80
2022/10/14 09:13:59;;;;;;;2.75;1.75;;;13.70;99.90;;;;;;4990134;28;20099;-82
2022/10/14 09:16:30;;;;;;;2.42;2.10;;;13.70;99.90;;;;;;5018539;28;20355;-82
2022/10/14 09:18:59;;;;;;;2.97;2.47;;;13.80;99.90;;;;;;5005454;28;20029;-84
2022/10/14 09:21:42;;;;;;;3.38;2.40;;;13.80;99.90;;;;;;5021429;28;20429;-80
2022/10/14 09:24:17;;;;;;;2.35;1.75;;;13.80;99.90;;;;;;5004446;28;20034;-79
2022/10/14 09:26:45;;;;;;;3.38;2.80;;;13.80;99.90;;;;;;5023440;28;20042;-83
2022/10/14 09:29:29;;;;;;;2.15;1.52;;;13.80;99.90;;;;;;5005249;28;20049;-80
2022/10/14 09:32:12;;;;;;;2.17;1.65;;;13.80;99.90;;;;;;5004960;28;20033;-79
2022/10/14 09:34:44;;;;;;;1.73;1.13;;;13.90;99.90;;;;;;5019511;28;20084;-79
2022/10/14 09:37:33;;;;;;;1.80;1.00;;;13.90;99.90;;;;;;5004792;28;20040;-80
2022/10/14 09:40:11;;;;;;;2.80;1.05;;;13.90;99.90;;;;;;5022345;28;20017;-79
2022/10/14 09:42:55;;;;;;;1.50;0.90;;;13.90;99.90;;;;;;5021499;28;20116;-79
2022/10/14 09:45:22;;;;;;;1.42;0.80;;;14.00;99.90;;;;;;5004308;28;20469;-81
2022/10/14 09:47:58;;;;;;;1.40;0.85;;;14.00;99.90;;;;;;5021762;28;20045;-80
2022/10/14 09:50:38;;;;;;;1.52;0.93;;;14.00;99.90;;;;;;5004229;28;20107;-81
2022/10/14 09:53:14;;;;;;;1.67;0.90;;;13.90;99.90;;;;;;5005808;28;20052;-79
2022/10/14 09:55:49;;;;;;;1.65;0.80;;;14.00;99.90;;;;;;5005343;28;20061;-78
2022/10/14 09:58:17;;;;;;;1.40;0.80;;;14.10;99.90;;;;;;5019996;28;20029;-79
2022/10/14 10:00:45;;;;;;;1.50;0.82;;;14.10;99.90;;;;;;5005297;28;20078;-79
2022/10/14 10:03:28;;;;;;;1.58;1.00;;;14.20;99.90;;;;;;4983962;28;20030;-79
2022/10/14 10:06:07;;;;;;;1.38;0.80;;;14.20;99.90;;;;;;4992620;28;20037;-78
2022/10/14 10:08:36;;;;;;;1.40;0.75;;;14.20;99.90;;;;;;5021397;28;20384;-79
2022/10/14 10:11:04;;;;;;;1.93;1.50;;;14.30;99.90;;;;;;5023343;28;20052;-80
2022/10/14 10:13:47;;;;;;;1.70;0.98;;;14.30;99.90;;;;;;5007125;28;20758;-79
2022/10/14 10:16:25;;;;;;;1.50;0.60;;;14.30;99.90;;;;;;5007855;28;20031;-81
2022/10/14 10:18:54;;;;;;;1.60;0.90;;;14.40;99.90;;;;;;5008470;28;20040;-82
2022/10/14 10:21:31;;;;;;;1.80;0.82;;;14.40;99.90;;;;;;4992138;28;20493;-82
2022/10/14 10:24:02;;;;;;;1.23;0.63;;;14.40;99.90;;;;;;5008733;28;20482;-83
2022/10/14 10:26:33;;;;;;;1.65;0.73;;;14.50;99.90;;;;;;5021468;28;20042;-81
2022/10/14 10:29:01;;;;;;;1.70;1.10;;;14.50;99.90;;;;;;5021200;28;20111;-79
2022/10/14 10:31:57;;;;;;;3.28;0.90;;;14.50;99.90;;;;;;5022164;28;20037;-79
2022/10/14 10:34:41;;;;;;;1.27;0.63;;;14.60;99.90;;;;;;5023250;28;20080;-81
2022/10/14 10:37:27;;;;;;;1.42;0.80;;;14.60;99.90;;;;;;5024579;28;20096;-79
2022/10/14 10:40:19;;;;;;;1.90;0.80;;;14.60;99.90;;;;;;5040778;28;20099;-83
2022/10/14 10:42:54;;;;;;;1.48;0.68;;;14.60;99.90;;;;;;4999714;28;20495;-83
2022/10/14 10:45:29;;;;;;;1.55;0.80;;;14.60;99.90;;;;;;5023063;28;20539;-80
2022/10/14 10:48:29;;;;;;;2.15;0.80;;;14.60;99.90;;;;;;5008094;28;20406;-79
2022/10/14 10:51:06;;;;;;;1.02;0.50;;;14.70;99.90;;;;;;5039388;28;20071;-82
2022/10/14 10:53:48;;;;;;;1.70;0.73;;;14.70;99.90;;;;;;5006711;28;20373;-79
2022/10/14 10:56:33;;;;;;;1.50;0.70;;;14.70;99.90;;;;;;5007617;28;20229;-81
2022/10/14 10:59:08;;;;;;;2.03;1.58;;;14.70;99.90;;;;;;5008432;28;20038;-80
2022/10/14 11:01:52;;;;;;;1.60;1.00;;;14.70;99.90;;;;;;5023608;28;20053;-80
2022/10/14 11:04:29;;;;;;;1.40;0.80;;;14.80;99.90;;;;;;5006314;28;20478;-79
2022/10/14 11:13:35;;;;;;;2.40;1.20;;;15.00;99.90;;;;;;4993908;28;20049;-79
2022/10/14 11:16:26;;;;;;;1.95;1.02;;;14.90;99.90;;;;;;5003108;28;20060;-80
2022/10/14 11:19:14;;;;;;;2.53;0.90;;;15.00;99.90;;;;;;4993855;28;20388;-81
2022/10/14 11:22:05;;;;;;;1.90;1.08;;;15.00;99.90;;;;;;5010082;28;20057;-79
2022/10/14 11:24:57;;;;;;;1.40;0.70;;;15.00;99.90;;;;;;5011168;28;20083;-85
2022/10/14 11:27:40;;;;;;;1.48;0.80;;;14.90;99.90;;;;;;4986871;28;20076;-83
2022/10/14 11:30:22;;;;;;;2.90;1.15;;;14.90;99.90;;;;;;4993632;28;20520;-84
2022/10/14 11:33:21;;;;;;;1.90;1.52;;;14.80;99.90;;;;;;5008731;28;20045;-81
2022/10/14 11:36:07;;;;;;;1.67;1.02;;;14.80;99.90;;;;;;4987583;28;20026;-80
2022/10/14 11:39:01;;;;;;;2.72;1.10;;;14.80;99.90;;;;;;4994465;28;20046;-80
2022/10/14 11:41:45;;;;;;;1.40;0.73;;;14.90;99.90;;;;;;4993495;28;20216;-84
2022/10/14 11:44:21;;;;;;;1.40;0.70;;;14.90;99.90;;;;;;4980688;28;20068;-84
2022/10/14 11:46:52;;;;;;;2.45;1.10;;;14.80;99.90;;;;;;5007258;28;20041;-81
2022/10/14 11:49:26;;;;;;;2.03;1.30;;;14.80;99.90;;;;;;4991183;28;20017;-78
2022/10/14 11:52:02;;;;;;;1.58;0.80;;;14.90;99.90;;;;;;5006419;28;20474;-80
2022/10/14 11:54:32;;;;;;;2.15;0.77;;;14.90;99.90;;;;;;5007169;28;20034;-80
2022/10/14 11:57:06;;;;;;;;;;;14.80;99.90;;;;;;4990595;28;20033;-82
2022/10/14 12:00:00;;;;;;;1.60;0.63;;;14.80;99.90;;;;;;5006271;28;19963;-81
2022/10/14 12:03:08;;;;;;;1.40;0.80;;;14.90;99.90;;;;;;5006194;28;20025;-82
2022/10/14 12:05:46;;;;;;;1.60;0.90;;;14.90;99.90;;;;;;5020880;28;20103;-83
2022/10/14 12:08:21;;;;;;;1.02;0.70;;;14.90;99.90;;;;;;5005954;28;20029;-78
2022/10/14 12:11:24;;;;;;;1.48;0.80;;;14.90;99.90;;;;;;4989089;28;20068;-82
2022/10/14 12:14:01;;;;;;;2.00;1.00;;;14.90;99.90;;;;;;5036891;28;20039;-79
2022/10/14 12:16:27;;;;;;;1.95;0.90;;;15.00;99.90;;;;;;4990773;28;20110;-82
2022/10/14 12:18:57;;;;;;;1.25;0.70;;;15.00;99.90;;;;;;5006227;28;20038;-82
2022/10/14 12:21:45;;;;;;;1.20;0.70;;;15.00;99.90;;;;;;5018801;28;20396;-81
2022/10/14 12:24:30;;;;;;;1.30;0.75;;;15.10;99.90;;;;;;5004920;28;20036;-81
2022/10/14 12:27:04;;;;;;;1.17;0.60;;;15.00;99.90;;;;;;5005359;28;20033;-80
2022/10/14 12:29:57;;;;;;;1.42;0.50;;;15.00;99.90;;;;;;5021721;28;20062;-80
2022/10/14 12:32:29;;;;;;;1.73;0.60;;;15.10;99.90;;;;;;4995248;28;20045;-80
2022/10/14 12:34:57;;;;;;;1.60;0.82;;;15.00;99.90;;;;;;5022983;28;20041;-81
2022/10/14 12:37:23;;;;;;;1.67;0.68;;;15.10;99.90;;;;;;5006512;28;20499;-82
2022/10/14 12:39:53;;;;;;;2.65;0.60;;;15.00;99.90;;;;;;5020501;28;20034;-80
2022/10/14 12:42:20;;;;;;;1.00;0.50;;;15.10;99.90;;;;;;5019314;28;20026;-82
2022/10/14 12:44:57;;;;;;;1.25;0.60;;;15.10;99.90;;;;;;5021673;28;20477;-81
2022/10/14 12:47:32;;;;;;;0.90;0.40;;;15.20;99.90;;;;;;5005585;28;20087;-82
2022/10/14 12:50:01;;;;;;;1.10;0.57;;;15.20;99.90;;;;;;5022885;28;20121;-82
2022/10/14 12:52:34;;;;;;;0.80;0.40;;;15.20;99.90;;;;;;5005676;28;20033;-82
2022/10/14 12:55:07;;;;;;;1.40;0.45;;;15.30;99.90;;;;;;5006027;28;20083;-79
2022/10/14 12:57:35;;;;;;;1.70;0.50;;;15.30;99.90;;;;;;5005671;28;20029;-81
2022/10/14 13:00:21;;;;;;;0.90;0.40;;;15.30;99.90;;;;;;5037510;28;20420;-81
2022/10/14 13:02:49;;;;;;;1.13;0.30;;;15.30;99.90;;;;;;5010414;28;20428;-82
2022/10/14 13:05:36;;;;;;;0.65;0.40;;;15.30;99.90;;;;;;5022015;28;20385;-81
2022/10/14 13:08:23;;;;;;;0.82;0.40;;;15.30;99.90;;;;;;5005183;28;20045;-80
2022/10/14 13:10:57;;;;;;;0.80;0.30;;;15.30;99.90;;;;;;5005555;28;20060;-81
2022/10/14 13:13:46;;;;;;;0.73;0.30;;;15.40;99.90;;;;;;5020643;28;20059;-81